Time;durP1;ratioP1;P1;durP2;ratioP2;P2;SDS_P1;SDS_P2;PMS_P1;PMS_P2;Temp;Humidity;BMP_temperature;BMP_pressure;BME280_temperature;BME280_humidity;BME280_pressure;Samples;Min_cycle;Max_cycle;Signal;HPM_P1;HPM_P2
2023/08/08 00:01:56;;;;;;;9.53;3.20;;;15.40;99.90;;;;;;7280482;19;20693;-76
2023/08/08 00:04:22;;;;;;;9.73;3.20;;;15.20;99.90;;;;;;7278877;19;20657;-78
2023/08/08 00:06:48;;;;;;;9.23;3.30;;;15.20;99.90;;;;;;7279493;19;20194;-75
2023/08/08 00:09:13;;;;;;;12.73;3.60;;;15.20;99.90;;;;;;7279226;19;20202;-76
2023/08/08 00:11:39;;;;;;;15.03;3.57;;;15.20;99.90;;;;;;7287351;19;20189;-76
2023/08/08 00:14:05;;;;;;;13.00;3.70;;;15.10;99.90;;;;;;7301826;19;20653;-77
2023/08/08 00:16:31;;;;;;;11.43;3.47;;;15.10;99.90;;;;;;7277238;19;20186;-77
2023/08/08 00:18:56;;;;;;;13.47;3.67;;;15.10;99.90;;;;;;7279619;19;20896;-77
2023/08/08 00:21:22;;;;;;;14.73;3.70;;;15.10;99.90;;;;;;7277989;19;20210;-77
2023/08/08 00:23:48;;;;;;;11.33;3.80;;;15.10;99.90;;;;;;7277455;19;20204;-77
2023/08/08 00:26:14;;;;;;;10.27;3.60;;;15.10;99.90;;;;;;7278240;19;20740;-77
2023/08/08 00:28:39;;;;;;;10.73;3.80;;;15.10;99.90;;;;;;7283074;19;20189;-76
2023/08/08 00:31:07;;;;;;;14.60;3.67;;;15.10;99.90;;;;;;7300991;19;20180;-76
2023/08/08 00:33:32;;;;;;;13.30;3.60;;;15.10;99.90;;;;;;7278409;19;20205;-76
2023/08/08 00:35:58;;;;;;;12.60;3.83;;;15.00;99.90;;;;;;7277152;19;20253;-76
2023/08/08 00:38:24;;;;;;;11.33;3.60;;;15.00;99.90;;;;;;7276816;19;20630;-76
2023/08/08 00:40:50;;;;;;;13.53;3.80;;;15.00;99.90;;;;;;7275141;19;20253;-76
2023/08/08 00:43:16;;;;;;;12.37;3.97;;;15.00;99.90;;;;;;7274312;19;20590;-75
2023/08/08 00:45:43;;;;;;;12.00;3.83;;;15.00;99.90;;;;;;7277239;19;20817;-75
2023/08/08 00:48:09;;;;;;;16.30;4.10;;;14.90;99.90;;;;;;7287599;19;20680;-76
2023/08/08 00:50:36;;;;;;;10.87;3.90;;;14.90;99.90;;;;;;7299224;19;20198;-76
2023/08/08 00:53:04;;;;;;;10.43;4.00;;;14.90;99.90;;;;;;7277040;19;20210;-76
2023/08/08 00:55:31;;;;;;;11.10;3.63;;;14.90;99.90;;;;;;7275960;19;20183;-76
2023/08/08 00:57:56;;;;;;;14.60;4.40;;;14.90;99.90;;;;;;7275286;19;20195;-76
2023/08/08 01:00:22;;;;;;;11.60;3.90;;;14.90;99.90;;;;;;7275130;19;20249;-76
2023/08/08 01:02:48;;;;;;;15.97;4.13;;;14.90;99.90;;;;;;7275206;19;20360;-76
2023/08/08 01:05:14;;;;;;;11.50;3.57;;;14.90;99.90;;;;;;7276476;19;20252;-77
2023/08/08 01:08:01;;;;;;;11.87;4.10;;;14.90;99.90;;;;;;7275605;19;20197;-76
2023/08/08 01:10:31;;;;;;;12.97;4.00;;;14.80;99.90;;;;;;7279009;19;20197;-77
2023/08/08 01:13:02;;;;;;;12.90;4.30;;;14.80;99.90;;;;;;7281589;19;20201;-76
2023/08/08 01:15:32;;;;;;;14.13;3.90;;;14.90;99.90;;;;;;7282280;19;20400;-77
2023/08/08 01:17:58;;;;;;;15.30;4.17;;;14.90;99.90;;;;;;7280536;19;20189;-77
2023/08/08 01:20:24;;;;;;;9.83;3.93;;;14.80;99.90;;;;;;7284889;19;20580;-77
2023/08/08 01:22:59;;;;;;;14.37;3.97;;;14.90;99.90;;;;;;7283630;19;20192;-76
2023/08/08 01:25:26;;;;;;;16.97;4.37;;;14.80;99.90;;;;;;7283693;19;20185;-77
2023/08/08 01:27:51;;;;;;;13.33;4.07;;;14.80;99.90;;;;;;7284456;19;20421;-76
2023/08/08 01:30:17;;;;;;;9.40;3.57;;;14.80;99.90;;;;;;7283976;19;20300;-76
2023/08/08 01:32:43;;;;;;;17.40;4.07;;;14.80;99.90;;;;;;7281335;19;20249;-76
2023/08/08 01:35:09;;;;;;;11.13;3.87;;;14.80;99.90;;;;;;7296809;19;20870;-76
2023/08/08 01:38:00;;;;;;;14.80;3.87;;;14.80;99.90;;;;;;7299706;19;20195;-76
2023/08/08 01:40:28;;;;;;;15.83;4.00;;;14.80;99.90;;;;;;7179800;19;2005073;-76
2023/08/08 01:42:56;;;;;;;14.10;4.13;;;14.80;99.90;;;;;;7280819;19;20182;-76
2023/08/08 01:45:24;;;;;;;16.27;4.10;;;14.70;99.90;;;;;;7281245;19;20198;-77
2023/08/08 01:47:54;;;;;;;13.47;4.03;;;14.70;99.90;;;;;;7283427;19;20204;-77
2023/08/08 01:50:21;;;;;;;13.73;3.77;;;14.60;99.90;;;;;;7283316;19;20197;-76
2023/08/08 01:52:47;;;;;;;14.23;3.80;;;14.60;99.90;;;;;;7282952;19;20197;-76
2023/08/08 01:55:13;;;;;;;15.50;4.33;;;14.60;99.90;;;;;;7282945;19;20319;-76
2023/08/08 01:57:39;;;;;;;21.03;3.93;;;14.60;99.90;;;;;;7296896;19;20664;-76
2023/08/08 02:00:06;;;;;;;13.63;4.33;;;14.70;99.90;;;;;;7297761;19;20189;-76
2023/08/08 02:02:41;;;;;;;13.67;4.87;;;14.60;99.90;;;;;;7261021;19;20219;-76
2023/08/08 02:05:07;;;;;;;12.67;3.97;;;14.70;99.90;;;;;;7305856;19;20597;-76
2023/08/08 02:07:32;;;;;;;13.07;4.07;;;14.60;99.90;;;;;;7282277;19;20202;-76
2023/08/08 02:10:00;;;;;;;14.17;4.50;;;14.60;99.90;;;;;;7283060;19;20182;-77
2023/08/08 02:12:25;;;;;;;17.10;4.17;;;14.70;99.90;;;;;;7282518;19;20195;-76
2023/08/08 02:14:51;;;;;;;13.57;4.17;;;14.60;99.90;;;;;;7280212;19;20193;-76
2023/08/08 02:17:17;;;;;;;16.80;4.67;;;14.60;99.90;;;;;;7281688;19;20218;-76
2023/08/08 02:19:43;;;;;;;15.73;4.27;;;14.70;99.90;;;;;;7281134;19;20209;-76
2023/08/08 02:22:09;;;;;;;16.17;4.37;;;14.60;99.90;;;;;;7296558;19;20260;-75
2023/08/08 02:24:35;;;;;;;14.00;4.30;;;14.60;99.90;;;;;;7300727;19;20193;-76
2023/08/08 02:27:01;;;;;;;16.03;4.70;;;14.60;99.90;;;;;;7281223;19;20937;-77
2023/08/08 02:29:26;;;;;;;16.90;4.93;;;14.60;99.90;;;;;;7280919;19;20565;-76
2023/08/08 02:31:52;;;;;;;18.10;4.30;;;14.50;99.90;;;;;;7282933;19;20185;-76
2023/08/08 02:34:18;;;;;;;15.20;4.43;;;14.50;99.90;;;;;;7281130;19;20185;-76
2023/08/08 02:36:44;;;;;;;13.90;4.07;;;14.60;99.90;;;;;;7282701;19;20188;-76
2023/08/08 02:39:09;;;;;;;16.70;4.80;;;14.60;99.90;;;;;;7288316;19;20185;-76
2023/08/08 02:41:35;;;;;;;17.30;4.73;;;14.60;99.90;;;;;;7302328;19;20194;-78
2023/08/08 02:44:01;;;;;;;16.30;4.80;;;14.40;99.90;;;;;;7282190;19;20182;-78
2023/08/08 02:46:27;;;;;;;16.47;4.70;;;14.40;99.90;;;;;;7282295;19;20654;-76
2023/08/08 02:48:53;;;;;;;13.73;4.23;;;14.40;99.90;;;;;;7280706;19;20193;-76
2023/08/08 02:51:19;;;;;;;16.73;4.73;;;14.40;99.90;;;;;;7282874;19;20222;-76
2023/08/08 02:53:44;;;;;;;17.13;5.00;;;14.40;99.90;;;;;;7281189;19;20195;-76
2023/08/08 02:56:10;;;;;;;19.37;5.37;;;14.30;99.90;;;;;;7280422;19;20207;-75
2023/08/08 02:58:40;;;;;;;20.13;4.87;;;14.30;99.90;;;;;;7283781;19;20652;-76
2023/08/08 03:01:07;;;;;;;15.37;4.77;;;14.30;99.90;;;;;;7304266;19;20567;-77
2023/08/08 03:03:33;;;;;;;18.13;4.77;;;14.30;99.90;;;;;;7281391;19;20191;-76
2023/08/08 03:06:01;;;;;;;11.37;4.40;;;14.30;99.90;;;;;;7282293;19;20182;-77
2023/08/08 03:08:27;;;;;;;18.43;5.10;;;14.20;99.90;;;;;;7280304;19;20193;-77
2023/08/08 03:10:54;;;;;;;13.57;5.23;;;14.20;99.90;;;;;;7280773;19;20190;-77
2023/08/08 03:13:20;;;;;;;15.87;4.77;;;14.20;99.90;;;;;;7281124;19;20201;-77
2023/08/08 03:15:47;;;;;;;13.67;5.03;;;14.20;99.90;;;;;;7280432;19;20198;-76
2023/08/08 03:18:13;;;;;;;18.33;5.83;;;14.20;99.90;;;;;;7281213;19;20194;-77
2023/08/08 03:20:39;;;;;;;18.17;5.20;;;14.20;99.90;;;;;;7297816;19;20724;-76
2023/08/08 03:23:06;;;;;;;15.63;4.70;;;14.20;99.90;;;;;;7302673;19;20571;-76
2023/08/08 03:25:31;;;;;;;19.23;5.30;;;14.30;99.90;;;;;;7279228;19;20190;-77
2023/08/08 03:27:57;;;;;;;18.70;5.57;;;14.30;99.90;;;;;;7281338;19;20689;-76
2023/08/08 03:30:23;;;;;;;19.27;5.13;;;14.30;99.90;;;;;;7280829;19;20310;-77
2023/08/08 03:32:49;;;;;;;17.47;5.33;;;14.30;99.90;;;;;;7279919;19;20200;-77
2023/08/08 03:35:15;;;;;;;17.80;5.93;;;14.20;99.90;;;;;;7279457;19;20572;-77
2023/08/08 03:37:42;;;;;;;14.50;5.80;;;14.20;99.90;;;;;;7278419;19;20208;-76
2023/08/08 03:40:08;;;;;;;20.07;5.70;;;14.20;99.90;;;;;;7301457;19;20192;-78
2023/08/08 03:42:34;;;;;;;16.93;5.37;;;14.20;99.90;;;;;;7279503;19;20221;-75
2023/08/08 03:45:00;;;;;;;19.80;6.93;;;14.10;99.90;;;;;;7279469;19;20902;-77
2023/08/08 03:47:27;;;;;;;17.73;6.10;;;14.20;99.90;;;;;;7278599;19;20193;-76
2023/08/08 03:49:57;;;;;;;21.87;5.97;;;14.20;99.90;;;;;;7281446;19;20670;-76
2023/08/08 03:52:24;;;;;;;22.07;6.30;;;14.10;99.90;;;;;;7280523;19;20198;-76
2023/08/08 03:54:51;;;;;;;19.40;6.00;;;14.00;99.90;;;;;;7279510;19;20652;-76
2023/08/08 03:57:16;;;;;;;21.23;6.60;;;14.20;99.90;;;;;;7281197;19;20197;-76
2023/08/08 03:59:42;;;;;;;18.70;6.57;;;14.10;99.90;;;;;;7279280;19;20191;-76
2023/08/08 04:02:08;;;;;;;20.33;5.90;;;14.10;99.90;;;;;;7302248;19;20269;-77
2023/08/08 04:04:34;;;;;;;17.93;5.80;;;14.00;99.90;;;;;;7279979;19;20675;-78
2023/08/08 04:07:00;;;;;;;19.97;5.87;;;14.10;99.90;;;;;;7280003;19;20218;-76
2023/08/08 04:09:25;;;;;;;19.67;6.07;;;14.10;99.90;;;;;;7279792;19;20606;-76
2023/08/08 04:11:51;;;;;;;19.43;5.80;;;14.10;99.90;;;;;;7278185;19;20220;-77
2023/08/08 04:14:17;;;;;;;18.77;6.17;;;14.00;99.90;;;;;;7278380;19;20188;-77
2023/08/08 04:16:43;;;;;;;22.37;5.87;;;14.00;99.90;;;;;;7279820;19;20564;-77
2023/08/08 04:19:08;;;;;;;16.57;6.33;;;14.00;99.90;;;;;;7299882;19;20647;-76
2023/08/08 04:21:34;;;;;;;15.63;5.87;;;14.10;99.90;;;;;;7288621;19;20185;-77
2023/08/08 04:24:00;;;;;;;21.40;5.93;;;14.10;99.90;;;;;;7278757;19;20186;-77
2023/08/08 04:26:26;;;;;;;19.33;5.77;;;14.10;99.90;;;;;;7277821;19;20322;-76
2023/08/08 04:28:52;;;;;;;23.10;5.27;;;14.10;99.90;;;;;;7281044;19;20189;-76
2023/08/08 04:31:18;;;;;;;19.90;5.93;;;14.10;99.90;;;;;;7279517;19;20208;-76
2023/08/08 04:33:44;;;;;;;23.07;6.00;;;14.10;99.90;;;;;;7280121;19;21064;-76
2023/08/08 04:36:09;;;;;;;19.73;5.83;;;14.20;99.90;;;;;;7291133;19;20195;-76
2023/08/08 04:38:35;;;;;;;21.87;5.40;;;14.30;99.90;;;;;;7297724;19;20185;-78
2023/08/08 04:41:01;;;;;;;19.83;5.27;;;14.20;99.90;;;;;;7278289;19;20196;-76
2023/08/08 04:43:29;;;;;;;18.93;5.53;;;14.30;99.90;;;;;;7279908;19;20206;-76
2023/08/08 04:45:55;;;;;;;19.90;5.63;;;14.40;99.90;;;;;;7282956;19;20608;-76
2023/08/08 04:48:21;;;;;;;20.63;6.23;;;14.60;99.90;;;;;;7286447;19;20256;-76
2023/08/08 04:50:47;;;;;;;15.00;4.87;;;14.80;99.90;;;;;;7286452;19;20568;-75
2023/08/08 04:53:13;;;;;;;19.47;5.30;;;15.00;99.90;;;;;;7286858;19;20292;-77
2023/08/08 04:55:39;;;;;;;16.10;5.37;;;15.20;99.90;;;;;;7305933;19;20190;-76
2023/08/08 04:58:05;;;;;;;17.37;5.27;;;15.30;99.90;;;;;;7286596;19;20939;-76
2023/08/08 05:00:33;;;;;;;17.47;4.87;;;15.60;99.90;;;;;;7285945;19;20182;-76
2023/08/08 05:02:59;;;;;;;15.33;4.60;;;15.90;99.90;;;;;;7284738;19;20215;-76
2023/08/08 05:05:25;;;;;;;14.73;4.03;;;16.30;99.90;;;;;;7285028;19;20195;-76
2023/08/08 05:07:50;;;;;;;19.87;4.43;;;16.60;99.90;;;;;;7286386;19;20549;-78
2023/08/08 05:10:16;;;;;;;18.43;4.00;;;17.00;99.90;;;;;;7283691;19;20711;-77
2023/08/08 05:12:42;;;;;;;17.73;4.20;;;17.60;99.90;;;;;;7284662;19;20200;-76
2023/08/08 05:15:08;;;;;;;12.57;3.70;;;18.20;99.90;;;;;;7306308;19;20309;-77
2023/08/08 05:17:34;;;;;;;13.43;3.40;;;18.60;99.90;;;;;;7284603;19;20695;-76
2023/08/08 05:20:00;;;;;;;14.03;3.83;;;18.60;99.90;;;;;;7282936;19;20190;-76
2023/08/08 05:22:26;;;;;;;15.97;3.60;;;19.20;99.90;;;;;;7284767;19;20206;-76
2023/08/08 05:24:51;;;;;;;18.23;3.80;;;19.50;99.90;;;;;;7285266;19;20665;-76
2023/08/08 05:27:17;;;;;;;13.17;3.40;;;20.10;99.90;;;;;;7285230;19;20289;-76
2023/08/08 05:29:43;;;;;;;13.10;3.23;;;20.30;99.90;;;;;;7285031;19;20189;-76
2023/08/08 05:32:09;;;;;;;14.43;3.23;;;20.70;99.90;;;;;;7303769;19;20192;-75
2023/08/08 05:34:35;;;;;;;14.67;3.57;;;20.90;99.90;;;;;;7294328;19;20205;-76
2023/08/08 05:37:00;;;;;;;17.57;3.33;;;21.10;99.90;;;;;;7282336;19;20305;-76
2023/08/08 05:39:26;;;;;;;11.97;3.07;;;21.40;99.90;;;;;;7283661;19;20185;-76
2023/08/08 05:41:52;;;;;;;13.27;3.50;;;22.00;99.90;;;;;;7283567;19;20250;-76
2023/08/08 05:44:18;;;;;;;14.27;3.27;;;22.90;99.90;;;;;;7282992;19;20214;-77
2023/08/08 05:46:44;;;;;;;13.90;3.07;;;23.60;99.90;;;;;;7284262;19;20197;-77
2023/08/08 05:49:10;;;;;;;15.53;3.30;;;23.50;99.90;;;;;;7295322;19;20193;-76
2023/08/08 05:51:35;;;;;;;10.90;2.77;;;23.70;99.90;;;;;;7303269;19;20190;-77
2023/08/08 05:54:02;;;;;;;11.87;2.87;;;23.50;99.90;;;;;;7283425;19;20650;-77
2023/08/08 05:56:37;;;;;;;13.57;3.10;;;22.70;99.90;;;;;;7283024;19;20258;-77
2023/08/08 05:59:04;;;;;;;11.10;3.23;;;22.80;99.90;;;;;;7283492;19;20204;-77
2023/08/08 06:01:30;;;;;;;14.27;3.07;;;23.00;99.90;;;;;;7284066;19;20205;-77
2023/08/08 06:03:58;;;;;;;12.93;2.70;;;23.30;99.90;;;;;;7283344;19;20200;-76
2023/08/08 06:06:25;;;;;;;14.13;3.47;;;23.70;99.90;;;;;;7282677;19;20208;-76
2023/08/08 06:08:51;;;;;;;12.17;3.10;;;23.80;99.90;;;;;;7283274;19;20198;-76
2023/08/08 06:11:17;;;;;;;14.20;3.03;;;23.40;99.90;;;;;;7281921;19;20703;-75
2023/08/08 06:13:43;;;;;;;15.70;2.83;;;23.70;99.90;;;;;;7283346;19;20211;-76
2023/08/08 06:16:09;;;;;;;13.50;2.40;;;23.80;99.90;;;;;;7300894;19;20252;-76
2023/08/08 06:18:35;;;;;;;13.57;2.90;;;23.60;99.90;;;;;;7293228;19;20188;-77
2023/08/08 06:21:02;;;;;;;14.87;3.20;;;24.10;99.90;;;;;;7281991;19;20184;-76
2023/08/08 06:23:28;;;;;;;14.83;2.53;;;24.30;99.90;;;;;;7282826;19;20288;-76
2023/08/08 06:25:54;;;;;;;17.20;3.53;;;24.40;99.90;;;;;;7282003;19;20260;-77
2023/08/08 06:28:20;;;;;;;16.13;2.83;;;23.80;99.90;;;;;;7281652;19;20184;-77
2023/08/08 06:30:45;;;;;;;11.20;2.63;;;23.60;99.90;;;;;;7280991;19;20201;-76
2023/08/08 06:33:11;;;;;;;11.03;2.57;;;23.60;99.90;;;;;;7282496;19;20195;-76
2023/08/08 06:35:38;;;;;;;15.20;2.63;;;23.50;99.90;;;;;;7304544;19;20226;-76
2023/08/08 06:38:04;;;;;;;18.33;3.10;;;23.30;99.90;;;;;;7281857;19;20189;-76
2023/08/08 06:40:30;;;;;;;12.67;2.80;;;22.90;99.90;;;;;;7281507;19;20299;-76
2023/08/08 06:42:56;;;;;;;12.17;2.97;;;22.50;99.90;;;;;;7282932;19;20181;-76
2023/08/08 06:45:22;;;;;;;15.43;3.17;;;22.00;99.90;;;;;;7283349;19;20279;-76
2023/08/08 06:47:48;;;;;;;15.67;3.10;;;21.70;99.90;;;;;;7286420;19;20193;-76
2023/08/08 06:50:14;;;;;;;18.77;3.10;;;21.40;99.90;;;;;;7285396;19;20251;-76
2023/08/08 06:52:40;;;;;;;18.40;3.23;;;21.40;99.90;;;;;;7292580;19;20191;-75
2023/08/08 06:55:06;;;;;;;16.23;3.10;;;21.40;99.90;;;;;;7309575;19;20202;-76
2023/08/08 06:57:33;;;;;;;15.43;2.90;;;21.40;99.90;;;;;;7286754;19;20670;-76
2023/08/08 06:59:59;;;;;;;15.03;2.93;;;21.50;99.90;;;;;;7281796;19;20211;-77
2023/08/08 07:02:25;;;;;;;16.40;2.47;;;21.60;99.90;;;;;;7282406;19;20202;-77
2023/08/08 07:04:51;;;;;;;16.30;2.80;;;21.60;99.90;;;;;;7281438;19;20219;-76
2023/08/08 07:07:17;;;;;;;20.60;3.73;;;21.00;99.90;;;;;;7279873;19;20191;-76
2023/08/08 07:09:43;;;;;;;16.00;3.50;;;20.90;99.90;;;;;;7279718;19;20286;-76
2023/08/08 07:12:09;;;;;;;17.27;3.40;;;20.80;99.90;;;;;;7302641;19;20192;-75
2023/08/08 07:14:35;;;;;;;15.47;2.90;;;20.40;99.90;;;;;;7281821;19;20192;-76
2023/08/08 07:17:03;;;;;;;14.30;3.00;;;20.50;99.90;;;;;;7281895;19;20174;-76
2023/08/08 07:19:28;;;;;;;14.80;3.10;;;20.30;99.90;;;;;;7281587;19;20220;-77
2023/08/08 07:21:54;;;;;;;15.33;3.20;;;20.60;99.90;;;;;;7280006;19;20183;-77
2023/08/08 07:24:20;;;;;;;17.43;3.53;;;20.90;99.90;;;;;;7281030;19;20216;-77
2023/08/08 07:26:46;;;;;;;13.83;2.80;;;20.80;99.90;;;;;;7280803;19;20568;-77
2023/08/08 07:29:12;;;;;;;14.53;3.10;;;21.00;99.90;;;;;;7280608;19;20930;-77
2023/08/08 07:31:38;;;;;;;15.97;3.37;;;21.40;99.90;;;;;;7301508;19;20261;-77
2023/08/08 07:34:04;;;;;;;13.63;2.90;;;21.60;99.90;;;;;;7281582;19;20211;-77
2023/08/08 07:36:29;;;;;;;11.50;3.40;;;21.70;99.90;;;;;;7281306;19;20212;-77
2023/08/08 07:38:59;;;;;;;15.80;3.20;;;21.50;99.90;;;;;;7280331;19;20207;-77
2023/08/08 07:41:26;;;;;;;16.57;3.17;;;21.20;99.90;;;;;;7280066;19;20194;-77
2023/08/08 07:43:52;;;;;;;13.97;3.13;;;20.70;99.90;;;;;;7280855;19;20774;-77
2023/08/08 07:46:18;;;;;;;15.57;3.20;;;20.80;99.90;;;;;;7279863;19;20201;-77
2023/08/08 07:48:44;;;;;;;11.77;2.87;;;20.90;99.90;;;;;;7279909;19;22179;-77
2023/08/08 07:51:09;;;;;;;15.77;3.03;;;20.80;99.90;;;;;;7294196;19;20287;-77
2023/08/08 07:53:35;;;;;;;14.77;2.83;;;21.10;99.90;;;;;;7294122;19;20194;-77
2023/08/08 07:56:01;;;;;;;14.97;3.37;;;21.20;99.90;;;;;;7279848;19;20229;-77
2023/08/08 07:58:27;;;;;;;18.60;3.37;;;21.40;99.90;;;;;;7280554;19;20639;-77
2023/08/08 08:00:53;;;;;;;14.00;3.27;;;21.60;99.90;;;;;;7280049;19;20195;-78
2023/08/08 08:03:20;;;;;;;12.07;2.90;;;21.50;99.90;;;;;;7279313;19;20240;-77
2023/08/08 08:05:45;;;;;;;14.83;2.80;;;22.00;99.90;;;;;;7279074;19;20182;-77
2023/08/08 08:08:11;;;;;;;13.33;2.80;;;22.00;99.90;;;;;;7279407;19;20673;-77
2023/08/08 08:10:37;;;;;;;12.67;2.60;;;21.80;99.90;;;;;;7298924;19;21127;-77
2023/08/08 08:13:03;;;;;;;13.60;3.10;;;22.40;99.90;;;;;;7280492;19;20726;-77
2023/08/08 08:15:29;;;;;;;15.60;2.63;;;23.40;99.90;;;;;;7278839;19;20640;-77
2023/08/08 08:17:54;;;;;;;11.33;2.60;;;23.30;99.90;;;;;;7278101;19;20180;-77
2023/08/08 08:20:20;;;;;;;13.43;2.47;;;23.90;99.90;;;;;;7283295;19;20208;-77
2023/08/08 08:22:46;;;;;;;16.23;2.87;;;24.50;99.90;;;;;;7286643;19;20204;-77
2023/08/08 08:25:14;;;;;;;13.30;2.73;;;24.70;99.90;;;;;;7283908;19;20272;-77
2023/08/08 08:27:41;;;;;;;15.80;2.70;;;24.40;99.90;;;;;;7300283;19;20180;-77
2023/08/08 08:30:09;;;;;;;10.97;2.57;;;23.70;99.90;;;;;;7307378;19;20215;-77
2023/08/08 08:32:37;;;;;;;11.13;2.80;;;23.60;99.90;;;;;;7286079;19;20184;-77
2023/08/08 08:35:03;;;;;;;14.63;2.70;;;24.20;99.90;;;;;;7283219;19;20204;-77
2023/08/08 08:37:30;;;;;;;12.13;2.30;;;24.30;99.90;;;;;;7285299;19;20956;-75
2023/08/08 08:39:56;;;;;;;13.40;2.93;;;24.60;99.90;;;;;;7285114;19;20196;-75
2023/08/08 08:42:22;;;;;;;12.33;2.43;;;24.50;99.90;;;;;;7283450;19;20919;-76
2023/08/08 08:44:49;;;;;;;7.17;2.30;;;24.60;99.90;;;;;;7283489;19;20188;-76
2023/08/08 08:47:19;;;;;;;12.53;2.87;;;25.00;99.90;;;;;;7283908;19;20189;-76
2023/08/08 08:49:45;;;;;;;14.33;2.90;;;24.90;99.90;;;;;;7284014;19;20196;-76
2023/08/08 08:52:12;;;;;;;10.57;2.90;;;24.90;99.90;;;;;;7285780;19;20291;-76
2023/08/08 08:54:38;;;;;;;10.23;2.67;;;24.60;99.90;;;;;;7306501;19;20712;-75
2023/08/08 08:57:04;;;;;;;12.23;2.53;;;24.30;99.90;;;;;;7284507;19;20187;-76
2023/08/08 08:59:30;;;;;;;11.27;2.40;;;24.10;99.90;;;;;;7282496;19;20636;-76
2023/08/08 09:01:57;;;;;;;10.30;2.40;;;24.30;99.90;;;;;;7281483;19;20754;-76
2023/08/08 09:04:23;;;;;;;8.80;2.40;;;24.40;99.90;;;;;;7282394;19;20682;-77
2023/08/08 09:06:50;;;;;;;10.70;2.87;;;24.00;99.90;;;;;;7284607;19;20203;-77
2023/08/08 09:09:17;;;;;;;13.20;2.30;;;24.20;99.90;;;;;;7284102;19;20225;-75
2023/08/08 09:11:48;;;;;;;12.97;3.00;;;23.80;99.90;;;;;;7283542;19;20695;-77
2023/08/08 09:14:22;;;;;;;13.20;2.77;;;23.80;99.90;;;;;;7283902;19;20200;-77
2023/08/08 09:16:48;;;;;;;11.57;2.73;;;23.00;99.90;;;;;;7282646;19;21930;-77
2023/08/08 09:19:15;;;;;;;13.77;2.97;;;23.50;99.90;;;;;;7283550;19;20195;-77
2023/08/08 09:21:41;;;;;;;9.87;2.70;;;23.90;99.90;;;;;;7289166;19;20188;-77
2023/08/08 09:24:07;;;;;;;13.23;2.83;;;24.10;99.90;;;;;;7308026;19;20185;-76
2023/08/08 09:26:34;;;;;;;14.13;2.60;;;24.60;99.90;;;;;;7284220;19;20189;-77
2023/08/08 09:29:01;;;;;;;12.37;2.60;;;25.20;99.90;;;;;;7281067;19;21200;-77
2023/08/08 09:31:27;;;;;;;9.23;2.60;;;25.80;99.90;;;;;;7280792;19;20185;-77
2023/08/08 09:33:59;;;;;;;10.40;2.60;;;26.30;99.90;;;;;;7282521;19;20229;-77
2023/08/08 09:36:25;;;;;;;9.63;2.90;;;25.80;99.90;;;;;;7282003;19;20904;-77
2023/08/08 09:38:53;;;;;;;12.03;2.40;;;25.00;99.90;;;;;;7283261;19;20537;-76
2023/08/08 09:41:22;;;;;;;12.73;2.60;;;25.30;99.90;;;;;;7284262;19;20648;-77
2023/08/08 09:43:49;;;;;;;10.27;2.73;;;25.90;99.90;;;;;;7283163;19;20185;-77
2023/08/08 09:46:18;;;;;;;9.50;2.50;;;27.20;99.90;;;;;;7282781;19;20184;-77
2023/08/08 09:48:44;;;;;;;10.88;2.22;;;29.10;99.90;;;;;;7281332;19;20224;-77
2023/08/08 09:51:10;;;;;;;10.65;2.30;;;29.70;99.90;;;;;;7297683;19;20188;-77
2023/08/08 09:53:36;;;;;;;8.43;2.10;;;29.50;99.90;;;;;;7299674;19;20197;-77
2023/08/08 09:56:06;;;;;;;10.60;2.00;;;29.20;99.90;;;;;;7282888;19;20256;-75
2023/08/08 09:58:32;;;;;;;11.15;2.40;;;29.50;99.90;;;;;;7281691;19;20566;-76
2023/08/08 10:00:58;;;;;;;7.10;1.90;;;29.60;99.90;;;;;;7281799;19;20193;-76
2023/08/08 10:03:26;;;;;;;12.05;2.42;;;28.20;99.90;;;;;;7280215;19;20201;-76
2023/08/08 10:05:52;;;;;;;14.07;2.60;;;26.90;99.90;;;;;;7280851;19;20551;-76
2023/08/08 10:08:18;;;;;;;10.18;2.13;;;26.00;99.90;;;;;;7281683;19;20218;-77
2023/08/08 10:10:46;;;;;;;15.40;2.60;;;25.60;99.90;;;;;;7282921;19;20679;-77
2023/08/08 10:13:26;;;;;;;12.30;2.50;;;25.10;99.90;;;;;;7282394;19;20572;-76
2023/08/08 10:15:53;;;;;;;8.67;2.20;;;23.90;99.90;;;;;;7281585;19;20235;-76
2023/08/08 10:18:22;;;;;;;11.33;2.27;;;23.50;99.90;;;;;;7281850;19;20189;-76
2023/08/08 10:20:49;;;;;;;10.10;2.27;;;23.40;99.90;;;;;;7281138;19;20199;-76
2023/08/08 10:23:19;;;;;;;8.43;1.80;;;23.40;99.90;;;;;;7279668;19;20200;-76
2023/08/08 10:25:55;;;;;;;9.83;2.07;;;23.30;99.90;;;;;;7283124;19;20195;-76
2023/08/08 10:28:21;;;;;;;14.30;1.80;;;23.00;99.90;;;;;;7280973;19;20265;-77
2023/08/08 10:30:52;;;;;;;8.47;2.00;;;22.80;99.90;;;;;;7281077;19;20192;-77
2023/08/08 10:33:28;;;;;;;8.43;1.80;;;22.40;99.90;;;;;;7281043;19;20219;-77
2023/08/08 10:36:00;;;;;;;9.17;1.70;;;22.50;99.90;;;;;;7280331;19;20504;-77
2023/08/08 10:38:39;;;;;;;8.77;2.20;;;22.70;99.90;;;;;;7279330;19;20181;-77
2023/08/08 10:41:08;;;;;;;9.40;2.40;;;22.90;99.90;;;;;;7283107;19;20184;-78
2023/08/08 10:43:33;;;;;;;6.93;1.80;;;23.00;99.90;;;;;;7277968;19;20191;-77
2023/08/08 10:46:04;;;;;;;9.87;1.90;;;22.50;99.90;;;;;;7281345;19;20198;-76
2023/08/08 10:48:30;;;;;;;9.30;1.90;;;22.50;99.90;;;;;;7281252;19;20191;-76
2023/08/08 10:50:58;;;;;;;10.70;1.80;;;23.20;99.90;;;;;;7280674;19;20550;-76
2023/08/08 10:53:28;;;;;;;8.47;1.50;;;23.60;99.90;;;;;;7279002;19;20836;-76
2023/08/08 10:56:03;;;;;;;8.60;1.70;;;24.00;99.90;;;;;;7281634;19;20199;-77
2023/08/08 10:58:40;;;;;;;16.43;2.47;;;23.40;99.90;;;;;;7280361;19;20659;-76
2023/08/08 11:01:07;;;;;;;7.43;1.30;;;23.00;99.90;;;;;;7280162;19;20668;-76
2023/08/08 11:03:45;;;;;;;5.53;1.37;;;22.50;99.90;;;;;;7314244;19;21966;-77
2023/08/08 11:06:10;;;;;;;9.10;1.43;;;22.60;99.90;;;;;;7328137;19;20189;-78
2023/08/08 11:08:38;;;;;;;6.23;1.40;;;22.10;99.90;;;;;;7331576;19;20252;-78
2023/08/08 11:11:07;;;;;;;10.73;1.83;;;22.20;99.90;;;;;;7315753;19;20183;-77
2023/08/08 11:13:33;;;;;;;9.43;1.70;;;23.00;99.90;;;;;;7313784;19;20675;-76
2023/08/08 11:16:01;;;;;;;11.10;2.03;;;23.60;99.90;;;;;;7313647;19;20309;-77
2023/08/08 11:18:27;;;;;;;5.50;1.47;;;25.00;99.90;;;;;;7313515;19;20514;-77
2023/08/08 11:20:53;;;;;;;5.53;1.60;;;25.40;99.90;;;;;;7312932;19;20184;-77
2023/08/08 11:23:20;;;;;;;6.13;1.50;;;24.30;99.90;;;;;;7312511;19;20183;-77
2023/08/08 11:25:47;;;;;;;9.27;1.70;;;23.80;99.90;;;;;;7312849;19;20196;-77
2023/08/08 11:28:14;;;;;;;5.37;1.43;;;23.10;99.90;;;;;;7314052;19;20184;-77
2023/08/08 11:30:43;;;;;;;11.97;2.00;;;22.60;99.90;;;;;;7335371;19;20199;-77
2023/08/08 11:33:10;;;;;;;9.17;1.53;;;22.30;99.90;;;;;;7315001;19;20192;-77
2023/08/08 11:35:36;;;;;;;10.27;1.70;;;22.10;99.90;;;;;;7314682;19;20187;-77
2023/08/08 11:38:04;;;;;;;5.10;1.30;;;21.90;99.90;;;;;;7312252;19;20310;-77
2023/08/08 11:40:30;;;;;;;9.80;1.60;;;21.50;99.90;;;;;;7314126;19;20186;-77
2023/08/08 11:42:58;;;;;;;8.67;1.60;;;21.50;99.90;;;;;;7311705;19;20261;-76
2023/08/08 11:45:24;;;;;;;8.80;1.77;;;22.00;99.90;;;;;;7314081;19;20258;-77
2023/08/08 11:47:52;;;;;;;6.93;1.33;;;22.60;99.90;;;;;;7313013;19;20184;-78
2023/08/08 11:50:22;;;;;;;10.03;1.50;;;23.00;99.90;;;;;;7312486;19;20195;-77
2023/08/08 11:52:51;;;;;;;7.03;1.33;;;22.50;99.90;;;;;;7313189;19;20189;-76
2023/08/08 11:55:20;;;;;;;7.13;1.20;;;22.50;99.90;;;;;;7311597;19;20208;-78
2023/08/08 11:57:46;;;;;;;4.43;1.17;;;22.10;99.90;;;;;;7311947;19;20187;-77
2023/08/08 12:00:12;;;;;;;10.93;2.00;;;22.10;99.90;;;;;;7335368;19;20262;-77
2023/08/08 12:02:44;;;;;;;6.17;1.20;;;22.00;99.90;;;;;;7365543;19;20546;-77
2023/08/08 12:05:12;;;;;;;10.03;1.83;;;22.30;99.90;;;;;;7333964;19;20191;-77
2023/08/08 12:07:44;;;;;;;7.73;1.80;;;22.60;99.90;;;;;;7335099;19;20191;-78
2023/08/08 12:10:24;;;;;;;8.30;1.70;;;22.80;99.90;;;;;;7333360;19;20190;-80
2023/08/08 12:12:57;;;;;;;7.53;1.50;;;22.80;99.90;;;;;;7210423;19;2004362;-79
2023/08/08 12:15:23;;;;;;;5.63;1.37;;;22.60;99.90;;;;;;7287282;19;20187;-79
2023/08/08 12:17:49;;;;;;;6.23;1.20;;;22.60;99.90;;;;;;7287570;19;20283;-80
2023/08/08 12:20:15;;;;;;;7.73;1.60;;;22.50;99.90;;;;;;7284589;19;20190;-79
2023/08/08 12:22:41;;;;;;;7.33;1.70;;;22.40;99.90;;;;;;7300701;19;20186;-79
2023/08/08 12:25:08;;;;;;;11.40;1.30;;;22.50;99.90;;;;;;7325798;19;20195;-79
2023/08/08 12:27:34;;;;;;;9.57;1.73;;;22.70;99.90;;;;;;7273224;19;20202;-79
2023/08/08 12:30:00;;;;;;;6.17;1.60;;;23.00;99.90;;;;;;7297768;19;20195;-78
2023/08/08 12:32:28;;;;;;;9.73;1.40;;;23.70;99.90;;;;;;7287179;19;20252;-78
2023/08/08 12:34:57;;;;;;;5.00;1.40;;;24.50;99.90;;;;;;7286727;19;20204;-80
2023/08/08 12:37:23;;;;;;;5.57;1.30;;;24.50;99.90;;;;;;7286825;19;20255;-79